createdAt,value
2018-08-03T04:00:34.018Z,116.00
2018-08-03T04:01:33.986Z,120.00
2018-08-03T04:02:33.979Z,132.00
2018-08-03T04:03:33.982Z,140.00
2018-08-03T04:04:33.986Z,144.00
2018-08-03T04:05:33.959Z,152.00
2018-08-03T04:06:33.932Z,156.00
2018-08-03T04:07:33.961Z,168.00
2018-08-03T04:08:33.915Z,176.00
2018-08-03T04:09:33.899Z,188.00
2018-08-03T04:10:33.894Z,196.00
2018-08-03T04:11:33.880Z,196.00
2018-08-03T04:12:33.868Z,208.00
2018-08-03T04:13:33.850Z,212.00
2018-08-03T04:14:33.843Z,228.00
2018-08-03T04:15:33.844Z,236.00
2018-08-03T04:16:33.859Z,244.00
2018-08-03T04:17:33.803Z,256.00
2018-08-03T04:18:33.794Z,268.00
2018-08-03T04:19:33.798Z,280.00
2018-08-03T04:20:33.783Z,288.00
2018-08-03T04:21:33.763Z,292.00
2018-08-03T04:22:33.753Z,308.00
2018-08-03T04:23:33.741Z,316.00
2018-08-03T04:24:33.733Z,328.00
2018-08-03T04:25:33.796Z,332.00
2018-08-03T04:26:33.713Z,348.00
2018-08-03T04:27:33.697Z,356.00
2018-08-03T04:28:33.683Z,372.00
2018-08-03T04:29:33.671Z,380.00
2018-08-03T04:30:33.687Z,388.00
2018-08-03T04:31:33.655Z,400.00
2018-08-03T04:32:33.643Z,412.00
2018-08-03T04:33:33.637Z,428.00
2018-08-03T04:34:33.650Z,432.00
2018-08-03T04:35:33.605Z,448.00
2018-08-03T04:36:33.604Z,452.00
2018-08-03T04:37:33.583Z,460.00
2018-08-03T04:38:33.572Z,468.00
2018-08-03T04:39:33.561Z,476.00
2018-08-03T04:40:33.551Z,488.00
2018-08-03T04:41:33.551Z,504.00
2018-08-03T04:42:33.546Z,512.00
2018-08-03T04:43:33.514Z,520.00
2018-08-03T04:44:33.504Z,532.00
2018-08-03T04:45:33.512Z,548.00
2018-08-03T04:46:33.499Z,568.00
2018-08-03T04:47:33.476Z,592.00
2018-08-03T04:48:33.481Z,608.00
2018-08-03T04:49:33.448Z,624.00
2018-08-03T04:50:33.437Z,628.00
2018-08-03T04:51:33.438Z,644.00
2018-08-03T04:52:33.417Z,648.00
2018-08-03T04:53:33.406Z,660.00
2018-08-03T04:54:33.474Z,668.00
2018-08-03T04:55:33.383Z,684.00
2018-08-03T04:56:33.381Z,696.00
2018-08-03T04:57:33.360Z,704.00
2018-08-03T04:58:33.348Z,720.00
2018-08-03T04:59:33.335Z,736.00
2018-08-03T05:00:33.326Z,740.00
2018-08-03T05:01:33.324Z,748.00
2018-08-03T05:02:33.304Z,764.00
2018-08-03T05:03:33.292Z,780.00
2018-08-03T05:04:33.280Z,796.00
2018-08-03T05:05:33.269Z,804.00
2018-08-03T05:06:33.269Z,824.00
2018-08-03T05:07:33.246Z,836.00
2018-08-03T05:08:33.236Z,852.00
2018-08-03T05:09:33.223Z,868.00
2018-08-03T05:10:33.214Z,872.00
2018-08-03T05:11:33.220Z,884.00
2018-08-03T05:12:33.192Z,904.00
2018-08-03T05:13:33.179Z,912.00
2018-08-03T05:14:33.170Z,928.00
2018-08-03T05:15:33.219Z,944.00
2018-08-03T05:16:33.159Z,944.00
2018-08-03T05:17:33.136Z,952.00
2018-08-03T05:18:33.127Z,960.00
2018-08-03T05:19:33.112Z,972.00
2018-08-03T05:20:33.101Z,976.00
2018-08-03T05:21:33.114Z,988.00
2018-08-03T05:22:33.080Z,1008.00
2018-08-03T05:23:33.073Z,1028.00
2018-08-03T05:24:33.078Z,1048.00
2018-08-03T05:25:33.048Z,1060.00
2018-08-03T05:26:33.053Z,1076.00
2018-08-03T05:27:33.035Z,1084.00
2018-08-03T05:28:33.011Z,1096.00
2018-08-03T05:29:33.002Z,1108.00
2018-08-03T05:30:32.994Z,1120.00
2018-08-03T05:31:32.979Z,1136.00
2018-08-03T05:32:32.985Z,1156.00
2018-08-03T05:33:32.961Z,1176.00
2018-08-03T05:34:32.948Z,1192.00
2018-08-03T05:35:33.013Z,1208.00
2018-08-03T05:36:32.922Z,1224.00
2018-08-03T05:37:32.924Z,1228.00
2018-08-03T05:38:32.900Z,1252.00
2018-08-03T05:39:32.889Z,1264.00
2018-08-03T05:40:32.878Z,1284.00
2018-08-03T05:41:32.876Z,1292.00
2018-08-03T05:42:32.905Z,1312.00
2018-08-03T05:43:32.843Z,1320.00
2018-08-03T05:44:32.831Z,1340.00
2018-08-03T05:45:32.896Z,1372.00
2018-08-03T05:46:32.810Z,1384.00
2018-08-03T05:47:32.814Z,1392.00
2018-08-03T05:48:32.788Z,1408.00
2018-08-03T05:49:32.780Z,1420.00
2018-08-03T05:50:32.799Z,1428.00
2018-08-03T05:51:32.761Z,1444.00
2018-08-03T05:52:32.830Z,1468.00
2018-08-03T05:53:32.732Z,1476.00
2018-08-03T05:54:32.724Z,1504.00
2018-08-03T05:55:32.715Z,1516.00
2018-08-03T05:56:32.709Z,1544.00
2018-08-03T05:57:32.701Z,1560.00
2018-08-03T05:58:32.675Z,1580.00
2018-08-03T05:59:32.666Z,1596.00
2018-08-03T06:00:32.655Z,1612.00
2018-08-03T06:01:32.651Z,1628.00
2018-08-03T06:02:32.672Z,1648.00
2018-08-03T06:03:32.630Z,1668.00
2018-08-03T06:04:32.611Z,1700.00
2018-08-03T06:05:32.596Z,1708.00
2018-08-03T06:06:32.587Z,1720.00
2018-08-03T06:07:32.593Z,1784.00
2018-08-03T06:08:32.574Z,1936.00
2018-08-03T06:09:34.676Z,2292.00
2018-08-03T06:10:33.259Z,3016.00
2018-08-03T06:11:37.807Z,3372.00
2018-08-03T06:12:33.913Z,3408.00
2018-08-03T06:13:35.806Z,3376.00
2018-08-03T06:14:35.837Z,3408.00
2018-08-03T06:15:33.310Z,3412.00
2018-08-03T06:16:32.476Z,3436.00
2018-08-03T06:17:32.463Z,3460.00
2018-08-03T06:18:32.462Z,3524.00
2018-08-03T06:19:32.443Z,3572.00
2018-08-03T06:20:32.490Z,3680.00
2018-08-03T06:21:32.419Z,3740.00
2018-08-03T06:22:32.408Z,3816.00
2018-08-03T06:23:32.410Z,3864.00
2018-08-03T06:24:32.393Z,3916.00
2018-08-03T06:25:32.374Z,3984.00
2018-08-03T06:26:32.455Z,4036.00
2018-08-03T06:27:32.361Z,4060.00
2018-08-03T06:28:32.390Z,4124.00
2018-08-03T06:29:32.381Z,4180.00
2018-08-03T06:30:32.317Z,4272.00
2018-08-03T06:31:32.305Z,4316.00
2018-08-03T06:32:32.299Z,4336.00
2018-08-03T06:33:32.297Z,4348.00
2018-08-03T06:34:32.275Z,4400.00
2018-08-03T06:35:32.263Z,4396.00
2018-08-03T06:36:32.252Z,4432.00
2018-08-03T06:37:32.239Z,4472.00
2018-08-03T06:38:32.252Z,4548.00
2018-08-03T06:39:32.218Z,4576.00
2018-08-03T06:40:32.268Z,4608.00
2018-08-03T06:41:32.203Z,4652.00
2018-08-03T06:42:32.199Z,4696.00
2018-08-03T06:43:32.227Z,4740.00
2018-08-03T06:44:32.160Z,4824.00
2018-08-03T06:45:32.155Z,4840.00
2018-08-03T06:46:32.144Z,4840.00
2018-08-03T06:47:32.132Z,4848.00
2018-08-03T06:48:32.275Z,4876.00
2018-08-03T06:49:32.114Z,4880.00
2018-08-03T06:50:32.097Z,4868.00
2018-08-03T06:51:32.119Z,4904.00
2018-08-03T06:52:32.073Z,4928.00
2018-08-03T06:53:32.081Z,4980.00
2018-08-03T06:54:32.054Z,4928.00
2018-08-03T06:55:32.042Z,4988.00
2018-08-03T06:56:32.204Z,5028.00
2018-08-03T06:57:32.094Z,5000.00
2018-08-03T06:58:32.142Z,5064.00
2018-08-03T06:59:32.040Z,5112.00
2018-08-03T07:00:32.254Z,5172.00
2018-08-03T07:01:32.049Z,5180.00
2018-08-03T07:02:32.023Z,5224.00
2018-08-03T07:03:32.081Z,5260.00
2018-08-03T07:04:31.995Z,5288.00
2018-08-03T07:05:31.933Z,5300.00
2018-08-03T07:06:31.921Z,5344.00
2018-08-03T07:07:31.911Z,5380.00
2018-08-03T07:08:31.966Z,5416.00
2018-08-03T07:09:31.897Z,5448.00
2018-08-03T07:10:31.876Z,5548.00
2018-08-03T07:11:31.866Z,5592.00
2018-08-03T07:12:31.854Z,5640.00
2018-08-03T07:13:31.843Z,5736.00
2018-08-03T07:14:31.893Z,5828.00
2018-08-03T07:15:31.822Z,5904.00
2018-08-03T07:16:31.812Z,5980.00
2018-08-03T07:17:31.803Z,6080.00
2018-08-03T07:18:31.792Z,6136.00
2018-08-03T07:19:31.786Z,6136.00
2018-08-03T07:20:31.885Z,6212.00
2018-08-03T07:21:31.757Z,6300.00
2018-08-03T07:22:31.747Z,6380.00
2018-08-03T07:23:31.741Z,6476.00
2018-08-03T07:24:31.733Z,6552.00
2018-08-03T07:25:31.712Z,6632.00
2018-08-03T07:26:31.700Z,6732.00
2018-08-03T07:27:31.687Z,6820.00
2018-08-03T07:28:31.676Z,6908.00
2018-08-03T07:29:31.675Z,6956.00
2018-08-03T07:30:31.655Z,6952.00
2018-08-03T07:31:31.673Z,6984.00
2018-08-03T07:32:31.632Z,7012.00
2018-08-03T07:33:31.624Z,7176.00
2018-08-03T07:34:31.625Z,7220.00
2018-08-03T07:35:31.605Z,7332.00
2018-08-03T07:36:31.590Z,7356.00
2018-08-03T07:37:31.582Z,7376.00
2018-08-03T07:38:31.572Z,7424.00
2018-08-03T07:39:31.570Z,7508.00
2018-08-03T07:40:31.546Z,7544.00
2018-08-03T07:41:31.535Z,7676.00
2018-08-03T07:42:31.525Z,7628.00
2018-08-03T07:43:31.583Z,7648.00
2018-08-03T07:44:31.545Z,7716.00
2018-08-03T07:45:31.491Z,7832.00
2018-08-03T07:46:31.483Z,7944.00
2018-08-03T07:47:31.470Z,8084.00
2018-08-03T07:48:31.458Z,8156.00
2018-08-03T07:49:31.460Z,8140.00
2018-08-03T07:50:31.563Z,8100.00
2018-08-03T07:51:31.432Z,8060.00
2018-08-03T07:52:31.441Z,8000.00
2018-08-03T07:53:31.404Z,7940.00
2018-08-03T07:54:31.423Z,7980.00
2018-08-03T07:55:31.389Z,8068.00
2018-08-03T07:56:31.370Z,8172.00
2018-08-03T07:57:31.360Z,8184.00
2018-08-03T07:58:31.350Z,8208.00
2018-08-03T07:59:31.339Z,8256.00
2018-08-03T08:00:31.339Z,8284.00
2018-08-03T08:01:31.522Z,8324.00
2018-08-03T08:02:31.306Z,8316.00
2018-08-03T08:03:31.445Z,8428.00
2018-08-03T08:04:31.287Z,8404.00
2018-08-03T08:05:31.284Z,8460.00
2018-08-03T08:06:31.260Z,8492.00
2018-08-03T08:07:31.253Z,8564.00
2018-08-03T08:08:31.238Z,8636.00
2018-08-03T08:09:31.280Z,8720.00
2018-08-03T08:10:31.239Z,8780.00
2018-08-03T08:11:31.205Z,8820.00
2018-08-03T08:12:31.195Z,8856.00
2018-08-03T08:13:31.188Z,8916.00
2018-08-03T08:14:31.174Z,8940.00
2018-08-03T08:15:31.229Z,9040.00
2018-08-03T08:16:31.161Z,9144.00
2018-08-03T08:17:31.174Z,9168.00
2018-08-03T08:18:31.129Z,9204.00
2018-08-03T08:19:31.120Z,9200.00
2018-08-03T08:20:31.121Z,9224.00
2018-08-03T08:21:31.095Z,9328.00
2018-08-03T08:22:31.088Z,9388.00
2018-08-03T08:23:31.075Z,9400.00
2018-08-03T08:24:31.077Z,9440.00
2018-08-03T08:25:31.065Z,9508.00
2018-08-03T08:26:31.044Z,9604.00
2018-08-03T08:27:31.030Z,9704.00
2018-08-03T08:28:31.019Z,9772.00
2018-08-03T08:29:31.007Z,9816.00
2018-08-03T08:30:31.009Z,9892.00
2018-08-03T08:31:31.045Z,9932.00
2018-08-03T08:32:30.976Z,10032.00
2018-08-03T08:33:30.977Z,10104.00
2018-08-03T08:34:30.954Z,10152.00
2018-08-03T08:35:30.971Z,10256.00
2018-08-03T08:36:30.931Z,10284.00
2018-08-03T08:37:30.921Z,10356.00
2018-08-03T08:38:30.911Z,10360.00
2018-08-03T08:39:30.901Z,10432.00
2018-08-03T08:40:30.889Z,10532.00
2018-08-03T08:41:30.886Z,10680.00
2018-08-03T08:42:30.866Z,10708.00
2018-08-03T08:43:30.890Z,10820.00
2018-08-03T08:44:30.847Z,10896.00
2018-08-03T08:45:30.838Z,10916.00
2018-08-03T08:46:30.838Z,11000.00
2018-08-03T08:47:30.818Z,11232.00
2018-08-03T08:48:30.805Z,11264.00
2018-08-03T08:49:30.793Z,11424.00
2018-08-03T08:50:30.786Z,11616.00
2018-08-03T08:51:30.783Z,11872.00
2018-08-03T08:52:30.767Z,12288.00
2018-08-03T08:53:30.751Z,14496.00
2018-08-03T08:54:30.750Z,17696.00
2018-08-03T08:55:30.732Z,17024.00
2018-08-03T08:56:30.732Z,21600.00
2018-08-03T08:57:30.714Z,24256.00
2018-08-03T08:58:30.715Z,21728.00
2018-08-03T08:59:30.745Z,15200.00
2018-08-03T09:00:30.682Z,12896.00
2018-08-03T09:01:30.677Z,12576.00
2018-08-03T09:02:30.657Z,12544.00
2018-08-03T09:03:30.649Z,12512.00
2018-08-03T09:04:30.636Z,12736.00
2018-08-03T09:05:30.629Z,15040.00
2018-08-03T09:06:30.626Z,18336.00
2018-08-03T09:07:30.701Z,16288.00
2018-08-03T09:08:30.598Z,13632.00
2018-08-03T09:09:30.588Z,13216.00
2018-08-03T09:10:30.574Z,13312.00
2018-08-03T09:11:30.576Z,13152.00
2018-08-03T09:12:30.556Z,13120.00
2018-08-03T09:13:30.543Z,12736.00
2018-08-03T09:14:30.532Z,12896.00
2018-08-03T09:15:30.523Z,12864.00
2018-08-03T09:16:30.523Z,12832.00
2018-08-03T09:17:30.502Z,13088.00
2018-08-03T09:18:30.567Z,13120.00
2018-08-03T09:19:30.479Z,13376.00
2018-08-03T09:20:30.471Z,13472.00
2018-08-03T09:21:30.467Z,13440.00
2018-08-03T09:22:30.445Z,13312.00
2018-08-03T09:23:30.434Z,13344.00
2018-08-03T09:24:30.432Z,13216.00
2018-08-03T09:25:30.932Z,12384.00
2018-08-03T09:26:30.426Z,12576.00
2018-08-03T09:27:30.391Z,12576.00
2018-08-03T09:28:30.499Z,12640.00
2018-08-03T09:29:30.371Z,12672.00
2018-08-03T09:30:30.359Z,12448.00
2018-08-03T09:31:30.350Z,12480.00
2018-08-03T09:32:30.370Z,12320.00
2018-08-03T09:33:30.327Z,12448.00
2018-08-03T09:34:30.318Z,12384.00
2018-08-03T09:35:30.312Z,12480.00
2018-08-03T09:36:30.324Z,12576.00
2018-08-03T09:37:30.294Z,12416.00
2018-08-03T09:38:30.277Z,12448.00
2018-08-03T09:39:30.262Z,12352.00
2018-08-03T09:40:30.253Z,12160.00
2018-08-03T09:41:30.242Z,12032.00
2018-08-03T09:42:30.241Z,11808.00
2018-08-03T09:43:30.218Z,11360.00
2018-08-03T09:44:30.215Z,11264.00
2018-08-03T09:45:30.196Z,11232.00
2018-08-03T09:46:30.186Z,11384.00
2018-08-03T09:47:30.189Z,11032.00
2018-08-03T09:48:30.163Z,10852.00
2018-08-03T09:49:30.150Z,10752.00
2018-08-03T09:50:30.143Z,10608.00
2018-08-03T09:51:30.134Z,10460.00
2018-08-03T09:52:30.138Z,10148.00
2018-08-03T09:53:30.111Z,9972.00
2018-08-03T09:54:30.145Z,9908.00
2018-08-03T09:55:30.084Z,9776.00
2018-08-03T09:56:30.074Z,9432.00
2018-08-03T09:57:30.077Z,9248.00
2018-08-03T09:58:30.061Z,9124.00
2018-08-03T09:59:30.042Z,8972.00
2018-08-03T10:00:30.030Z,8752.00
2018-08-03T10:01:30.049Z,8476.00
2018-08-03T10:02:30.021Z,8172.00
2018-08-03T10:03:30.009Z,7844.00
2018-08-03T10:04:29.989Z,7336.00
2018-08-03T10:05:29.976Z,6780.00
2018-08-03T10:06:29.965Z,6012.00
2018-08-03T10:07:29.982Z,5280.00
2018-08-03T10:08:29.946Z,4812.00
2018-08-03T10:09:29.935Z,4460.00
2018-08-03T10:10:29.920Z,4360.00
2018-08-03T10:11:29.910Z,4100.00
2018-08-03T10:12:29.950Z,3724.00
2018-08-03T10:13:29.888Z,3580.00
2018-08-03T10:14:29.880Z,3488.00
2018-08-03T10:15:29.911Z,3404.00
2018-08-03T10:16:29.870Z,3328.00
2018-08-03T10:17:29.844Z,3248.00
2018-08-03T10:18:29.845Z,3152.00
2018-08-03T10:19:29.821Z,3144.00
2018-08-03T10:20:29.816Z,3212.00
2018-08-03T10:21:29.802Z,3252.00
2018-08-03T10:22:29.864Z,3224.00
2018-08-03T10:23:29.805Z,3064.00
2018-08-03T10:24:29.773Z,3048.00
2018-08-03T10:25:29.771Z,3016.00
2018-08-03T10:26:29.759Z,3044.00
2018-08-03T10:27:29.746Z,3080.00
2018-08-03T10:28:29.752Z,3236.00
2018-08-03T10:29:29.748Z,3300.00
2018-08-03T10:30:29.829Z,3308.00
2018-08-03T10:31:29.693Z,3168.00
2018-08-03T10:32:29.684Z,2980.00
2018-08-03T10:33:29.687Z,3076.00
2018-08-03T10:34:29.694Z,3060.00
2018-08-03T10:35:29.647Z,3100.00
2018-08-03T10:36:29.637Z,3176.00
2018-08-03T10:37:29.724Z,3068.00
2018-08-03T10:38:29.621Z,2904.00
2018-08-03T10:39:29.602Z,2864.00
2018-08-03T10:40:29.591Z,3068.00
2018-08-03T10:41:29.580Z,2944.00
2018-08-03T10:42:29.569Z,2876.00
2018-08-03T10:43:29.569Z,2788.00
2018-08-03T10:44:29.548Z,2728.00
2018-08-03T10:45:29.540Z,2824.00
2018-08-03T10:46:29.530Z,2800.00
2018-08-03T10:47:29.514Z,2936.00
2018-08-03T10:48:29.515Z,2968.00
2018-08-03T10:49:29.506Z,2836.00
2018-08-03T10:50:29.526Z,2812.00
2018-08-03T10:51:29.602Z,2568.00
2018-08-03T10:52:29.463Z,2552.00
2018-08-03T10:53:29.463Z,2304.00
2018-08-03T10:54:29.437Z,1972.00
2018-08-03T10:55:29.427Z,1916.00
2018-08-03T10:56:29.425Z,1888.00
2018-08-03T10:57:29.406Z,1856.00
2018-08-03T10:58:29.404Z,1940.00
2018-08-03T10:59:29.390Z,2072.00
2018-08-03T11:00:29.373Z,2356.00
2018-08-03T11:01:29.407Z,2460.00
2018-08-03T11:02:29.353Z,2612.00
2018-08-03T11:03:29.357Z,2624.00
2018-08-03T11:04:29.330Z,2448.00
2018-08-03T11:05:29.330Z,2272.00
2018-08-03T11:06:29.311Z,2168.00
2018-08-03T11:07:29.311Z,2140.00
2018-08-03T11:08:29.294Z,2140.00
2018-08-03T11:09:29.287Z,2260.00
2018-08-03T11:10:29.292Z,2360.00
2018-08-03T11:11:29.255Z,2252.00
2018-08-03T11:12:29.242Z,2092.00
2018-08-03T11:13:29.288Z,1944.00
2018-08-03T11:14:29.273Z,1956.00
2018-08-03T11:15:29.211Z,2004.00
2018-08-03T11:16:29.199Z,1976.00
2018-08-03T11:17:29.190Z,2000.00
2018-08-03T11:18:29.178Z,2136.00
2018-08-03T11:19:29.181Z,2100.00
2018-08-03T11:20:29.163Z,2036.00
2018-08-03T11:21:29.171Z,1844.00
2018-08-03T11:22:29.137Z,1964.00
2018-08-03T11:23:29.125Z,1976.00
2018-08-03T11:24:29.128Z,2136.00
2018-08-03T11:25:29.101Z,2164.00
2018-08-03T11:26:29.092Z,2308.00
2018-08-03T11:27:29.081Z,2140.00
2018-08-03T11:28:29.076Z,2152.00
2018-08-03T11:29:29.068Z,2132.00
2018-08-03T11:30:29.047Z,2024.00
2018-08-03T11:31:29.036Z,1788.00
2018-08-03T11:32:29.034Z,1760.00
2018-08-03T11:33:29.016Z,1744.00
2018-08-03T11:34:31.301Z,1776.00
2018-08-03T11:35:29.026Z,1876.00
2018-08-03T11:36:29.002Z,1772.00
2018-08-03T11:37:28.972Z,1800.00
2018-08-03T11:38:28.960Z,1864.00
2018-08-03T11:39:28.965Z,2064.00
2018-08-03T11:40:28.938Z,2168.00
2018-08-03T11:41:30.421Z,2164.00
2018-08-03T11:42:28.944Z,2196.00
2018-08-03T11:43:28.905Z,2000.00
2018-08-03T11:44:28.907Z,1840.00
2018-08-03T11:45:28.883Z,1676.00
2018-08-03T11:46:28.876Z,1668.00
2018-08-03T11:47:28.862Z,1740.00
2018-08-03T11:48:28.950Z,1852.00
2018-08-03T11:49:30.559Z,1916.00
2018-08-03T11:50:28.828Z,1856.00
2018-08-03T11:51:28.817Z,1820.00
2018-08-03T11:52:28.809Z,1752.00
2018-08-03T11:53:28.800Z,1728.00
2018-08-03T11:54:28.822Z,1776.00
2018-08-03T11:55:28.774Z,1888.00
2018-08-03T11:56:28.763Z,1716.00
2018-08-03T11:57:28.750Z,1612.00
2018-08-03T11:58:28.745Z,1632.00
2018-08-03T11:59:28.731Z,1580.00
2018-08-03T12:00:28.734Z,1536.00
2018-08-03T12:01:28.710Z,1496.00
2018-08-03T12:02:28.698Z,1540.00
2018-08-03T12:03:28.689Z,1556.00
2018-08-03T12:04:28.683Z,1584.00
2018-08-03T12:05:28.681Z,1564.00
2018-08-03T12:06:28.705Z,1576.00
2018-08-03T12:07:28.644Z,1688.00
2018-08-03T12:08:28.632Z,1772.00
2018-08-03T12:09:28.625Z,1916.00
2018-08-03T12:10:28.625Z,1908.00
2018-08-03T12:11:28.600Z,1936.00
2018-08-03T12:12:28.609Z,2008.00
2018-08-03T12:13:28.582Z,2044.00
2018-08-03T12:14:28.568Z,1964.00
2018-08-03T12:15:28.570Z,1804.00
2018-08-03T12:16:28.546Z,1660.00
2018-08-03T12:17:28.535Z,1576.00
2018-08-03T12:18:28.527Z,1520.00
2018-08-03T12:19:28.519Z,1692.00
2018-08-03T12:20:28.515Z,1640.00
2018-08-03T12:21:28.495Z,1700.00
2018-08-03T12:22:28.487Z,1800.00
2018-08-03T12:23:28.504Z,1844.00
2018-08-03T12:24:28.463Z,1728.00
2018-08-03T12:25:28.469Z,1576.00
2018-08-03T12:26:28.441Z,1524.00
2018-08-03T12:27:28.436Z,1560.00
2018-08-03T12:28:28.425Z,1520.00
2018-08-03T12:29:28.412Z,1424.00
2018-08-03T12:30:28.420Z,1380.00
2018-08-03T12:31:28.403Z,1444.00
2018-08-03T12:32:28.374Z,1440.00
2018-08-03T12:33:28.365Z,1376.00
2018-08-03T12:34:28.355Z,1400.00
2018-08-03T12:35:28.368Z,1460.00
2018-08-03T12:36:28.333Z,1488.00
2018-08-03T12:37:28.321Z,1556.00
2018-08-03T12:38:28.311Z,1596.00
2018-08-03T12:39:28.302Z,1684.00
2018-08-03T12:40:28.291Z,1732.00
2018-08-03T12:41:28.291Z,1704.00
2018-08-03T12:42:28.267Z,1660.00
2018-08-03T12:43:28.257Z,1608.00
2018-08-03T12:44:28.250Z,1580.00
2018-08-03T12:45:33.994Z,1584.00
2018-08-03T12:46:28.236Z,1540.00
2018-08-03T12:47:28.214Z,1468.00
2018-08-03T12:48:28.204Z,1464.00
2018-08-03T12:49:28.199Z,1556.00
2018-08-03T12:50:28.188Z,1600.00
2018-08-03T12:51:28.206Z,1624.00
2018-08-03T12:52:28.178Z,1660.00
2018-08-03T12:53:28.150Z,1620.00
2018-08-03T12:54:28.137Z,1528.00
2018-08-03T12:55:28.130Z,1384.00
2018-08-03T12:56:28.160Z,1264.00
2018-08-03T12:57:28.106Z,1164.00
2018-08-03T12:58:28.096Z,1116.00
2018-08-03T12:59:28.116Z,1064.00
2018-08-03T13:00:28.087Z,1044.00
2018-08-03T13:01:28.305Z,1048.00
2018-08-03T13:02:28.110Z,1036.00
2018-08-03T13:03:28.043Z,1044.00
2018-08-03T13:04:28.059Z,1060.00
2018-08-03T13:05:28.021Z,1076.00
2018-08-03T13:06:28.020Z,1080.00
2018-08-03T13:07:28.305Z,1080.00
2018-08-03T13:08:28.358Z,1100.00
2018-08-03T13:09:28.049Z,1128.00
2018-08-03T13:10:28.542Z,1136.00
2018-08-03T13:11:27.969Z,1160.00
2018-08-03T13:12:27.943Z,1216.00
2018-08-03T13:13:27.934Z,1268.00
2018-08-03T13:14:27.925Z,1316.00
2018-08-03T13:15:27.916Z,1336.00
2018-08-03T13:16:27.919Z,1332.00
2018-08-03T13:17:28.021Z,1256.00
2018-08-03T13:18:27.877Z,1172.00
2018-08-03T13:19:28.064Z,1104.00
2018-08-03T13:20:27.856Z,1064.00
2018-08-03T13:21:28.121Z,1012.00
2018-08-03T13:22:27.833Z,984.00
2018-08-03T13:23:27.824Z,988.00
2018-08-03T13:24:27.814Z,996.00
2018-08-03T13:25:27.802Z,996.00
2018-08-03T13:26:28.024Z,1012.00
2018-08-03T13:27:27.868Z,1020.00
2018-08-03T13:28:27.785Z,1032.00
2018-08-03T13:29:27.962Z,1040.00
2018-08-03T13:30:28.052Z,1076.00
2018-08-03T13:31:27.751Z,1136.00
2018-08-03T13:32:28.270Z,1200.00
2018-08-03T13:33:27.719Z,1300.00
2018-08-03T13:34:27.709Z,1344.00
2018-08-03T13:35:27.699Z,1292.00
2018-08-03T13:36:27.814Z,1280.00
2018-08-03T13:37:27.687Z,1352.00
2018-08-03T13:38:27.682Z,1352.00
2018-08-03T13:39:27.654Z,1296.00
2018-08-03T13:40:27.765Z,1208.00
2018-08-03T13:41:27.631Z,1108.00
2018-08-03T13:42:27.636Z,1036.00
2018-08-03T13:43:27.611Z,992.00
2018-08-03T13:44:27.613Z,968.00
2018-08-03T13:45:27.676Z,972.00
2018-08-03T13:46:27.867Z,960.00
2018-08-03T13:47:27.581Z,932.00
2018-08-03T13:48:27.570Z,920.00
2018-08-03T13:49:27.549Z,920.00
2018-08-03T13:50:27.683Z,936.00
2018-08-03T13:51:27.529Z,960.00
2018-08-03T13:52:27.530Z,996.00
2018-08-03T13:53:27.506Z,1032.00
2018-08-03T13:54:27.494Z,1044.00
2018-08-03T13:55:27.485Z,1024.00
2018-08-03T13:56:27.741Z,1012.00
2018-08-03T13:57:27.650Z,1000.00
2018-08-03T13:58:27.453Z,976.00
2018-08-03T13:59:27.457Z,972.00
2018-08-03T14:00:27.430Z,976.00
2018-08-03T14:01:27.838Z,972.00
2018-08-03T14:02:27.572Z,944.00
2018-08-03T14:03:27.399Z,960.00
2018-08-03T14:04:27.386Z,884.00
2018-08-03T14:05:27.377Z,880.00
2018-08-03T14:06:27.374Z,876.00
2018-08-03T14:07:27.365Z,844.00
2018-08-03T14:08:27.343Z,844.00
2018-08-03T14:09:27.337Z,828.00
2018-08-03T14:10:27.322Z,812.00
2018-08-03T14:11:27.312Z,796.00
2018-08-03T14:12:27.322Z,820.00
2018-08-03T14:13:27.294Z,796.00
2018-08-03T14:14:27.489Z,784.00
2018-08-03T14:15:27.270Z,796.00
2018-08-03T14:16:27.255Z,808.00
2018-08-03T14:17:27.247Z,820.00
2018-08-03T14:18:27.257Z,828.00
2018-08-03T14:19:27.225Z,832.00
2018-08-03T14:20:27.214Z,832.00
2018-08-03T14:21:27.211Z,836.00
2018-08-03T14:22:27.936Z,832.00
2018-08-03T14:23:27.188Z,824.00
2018-08-03T14:24:27.169Z,820.00
2018-08-03T14:25:27.176Z,784.00
2018-08-03T14:26:27.147Z,820.00
2018-08-03T14:27:27.149Z,880.00
2018-08-03T14:28:27.138Z,948.00
2018-08-03T14:29:27.115Z,1004.00
2018-08-03T14:30:27.108Z,1008.00
2018-08-03T14:31:27.142Z,988.00
2018-08-03T14:32:27.177Z,984.00
2018-08-03T14:33:27.091Z,1000.00
2018-08-03T14:34:27.061Z,1020.00
2018-08-03T14:35:27.067Z,992.00
2018-08-03T14:36:27.039Z,896.00
2018-08-03T14:37:27.031Z,828.00
2018-08-03T14:38:27.030Z,812.00
2018-08-03T14:39:27.010Z,784.00
2018-08-03T14:40:26.996Z,748.00
2018-08-03T14:41:26.986Z,720.00
2018-08-03T14:42:26.975Z,720.00
2018-08-03T14:43:26.978Z,756.00
2018-08-03T14:44:26.960Z,816.00
2018-08-03T14:45:26.942Z,820.00
2018-08-03T14:46:26.932Z,828.00
2018-08-03T14:47:26.919Z,812.00
2018-08-03T14:48:26.932Z,744.00
2018-08-03T14:49:26.899Z,720.00
2018-08-03T14:50:26.894Z,724.00
2018-08-03T14:51:26.879Z,768.00
2018-08-03T14:52:26.865Z,812.00
2018-08-03T14:53:26.885Z,820.00
2018-08-03T14:54:26.850Z,880.00
2018-08-03T14:55:26.838Z,1016.00
2018-08-03T14:56:26.825Z,1156.00
2018-08-03T14:57:26.811Z,1212.00
2018-08-03T14:58:26.800Z,1276.00
2018-08-03T14:59:26.800Z,1336.00
2018-08-03T15:00:26.803Z,1328.00
2018-08-03T15:01:26.768Z,1288.00
2018-08-03T15:02:26.757Z,1228.00
2018-08-03T15:03:26.751Z,1108.00
2018-08-03T15:04:26.746Z,1000.00
2018-08-03T15:05:26.724Z,908.00
2018-08-03T15:06:26.713Z,840.00
2018-08-03T15:07:26.703Z,760.00
2018-08-03T15:08:26.693Z,696.00
2018-08-03T15:09:26.696Z,680.00
2018-08-03T15:10:26.676Z,664.00
2018-08-03T15:11:26.665Z,656.00
2018-08-03T15:12:26.678Z,648.00
2018-08-03T15:13:26.640Z,632.00
2018-08-03T15:14:26.657Z,624.00
2018-08-03T15:15:26.617Z,624.00
2018-08-03T15:16:26.610Z,620.00
2018-08-03T15:17:26.597Z,624.00
2018-08-03T15:18:26.588Z,628.00
2018-08-03T15:19:26.589Z,632.00
2018-08-03T15:20:26.572Z,632.00
2018-08-03T15:21:26.553Z,640.00
2018-08-03T15:22:26.543Z,688.00
2018-08-03T15:23:26.534Z,692.00
2018-08-03T15:24:26.534Z,672.00
2018-08-03T15:25:26.510Z,664.00
2018-08-03T15:26:26.505Z,664.00
2018-08-03T15:27:26.490Z,668.00
2018-08-03T15:28:26.476Z,688.00
2018-08-03T15:29:26.479Z,712.00
2018-08-03T15:30:26.457Z,736.00
2018-08-03T15:31:26.445Z,700.00
2018-08-03T15:32:26.438Z,648.00
2018-08-03T15:33:26.424Z,620.00
2018-08-03T15:34:26.429Z,628.00
2018-08-03T15:35:26.407Z,632.00
2018-08-03T15:36:26.392Z,656.00
2018-08-03T15:37:26.382Z,668.00
2018-08-03T15:38:26.370Z,664.00
2018-08-03T15:39:26.368Z,660.00
2018-08-03T15:40:26.348Z,624.00
2018-08-03T15:41:26.340Z,588.00
2018-08-03T15:42:26.325Z,576.00
2018-08-03T15:43:26.318Z,564.00
2018-08-03T15:44:26.332Z,560.00
2018-08-03T15:45:26.295Z,572.00
2018-08-03T15:46:26.288Z,588.00
2018-08-03T15:47:26.321Z,596.00
2018-08-03T15:48:26.268Z,604.00
2018-08-03T15:49:26.248Z,604.00
2018-08-03T15:50:26.257Z,600.00
2018-08-03T15:51:26.227Z,600.00
2018-08-03T15:52:26.216Z,596.00
2018-08-03T15:53:26.208Z,592.00
2018-08-03T15:54:26.194Z,592.00
2018-08-03T15:55:26.211Z,588.00
2018-08-03T15:56:26.181Z,588.00
2018-08-03T15:57:26.161Z,588.00
2018-08-03T15:58:26.150Z,588.00
2018-08-03T15:59:26.139Z,588.00
2018-08-03T16:00:26.157Z,584.00
2018-08-03T16:01:26.117Z,588.00
2018-08-03T16:02:26.109Z,588.00
2018-08-03T16:03:26.093Z,592.00
2018-08-03T16:04:26.085Z,596.00
2018-08-03T16:05:26.085Z,596.00
2018-08-03T16:06:26.062Z,596.00
2018-08-03T16:07:26.060Z,596.00
2018-08-03T16:08:26.049Z,596.00
2018-08-03T16:09:26.031Z,600.00